createdAt,value
2018-02-04T00:00:01.358Z,66.90
2018-02-04T00:02:29.462Z,65.45
2018-02-04T00:04:57.849Z,63.70
2018-02-04T00:07:26.310Z,63.89
2018-02-04T00:09:54.963Z,66.17
2018-02-04T00:12:23.325Z,66.98
2018-02-04T00:14:51.698Z,66.82
2018-02-04T00:17:20.041Z,65.61
2018-02-04T00:19:48.406Z,66.26
2018-02-04T00:22:28.948Z,63.96
2018-02-04T00:24:57.333Z,64.00
2018-02-04T00:27:25.709Z,63.16
2018-02-04T00:29:54.079Z,64.12
2018-02-04T00:32:22.457Z,62.73
2018-02-04T00:34:50.905Z,62.40
2018-02-04T00:37:19.307Z,65.12
2018-02-04T00:39:47.761Z,66.37
2018-02-04T00:42:16.164Z,64.94
2018-02-04T00:44:44.549Z,65.01
2018-02-04T00:47:13.211Z,64.57
2018-02-04T00:49:41.576Z,67.60
2018-02-04T00:52:09.950Z,69.46
2018-02-04T00:54:38.333Z,68.27
2018-02-04T00:57:06.726Z,68.34
2018-02-04T00:59:35.439Z,70.34
2018-02-04T01:02:03.789Z,69.57
2018-02-04T01:04:32.141Z,69.22
2018-02-04T01:07:00.540Z,65.90
2018-02-04T01:09:28.898Z,65.66
2018-02-04T01:11:57.576Z,64.91
2018-02-04T01:14:25.962Z,63.73
2018-02-04T01:16:54.366Z,62.81
2018-02-04T01:19:22.755Z,63.34
2018-02-04T01:21:51.110Z,64.49
2018-02-04T01:24:19.888Z,63.53
2018-02-04T01:26:48.241Z,66.40
2018-02-04T01:29:16.622Z,63.69
2018-02-04T01:31:45.293Z,63.71
2018-02-04T01:34:13.944Z,63.87
2018-02-04T01:36:42.711Z,64.07
2018-02-04T01:39:11.553Z,63.93
2018-02-04T01:41:40.564Z,62.81
2018-02-04T01:44:09.472Z,63.07
2018-02-04T01:46:38.075Z,64.33
2018-02-04T01:49:06.566Z,61.03
2018-02-04T01:51:34.981Z,62.87
2018-02-04T01:54:03.512Z,63.37
2018-02-04T01:56:32.049Z,66.54
2018-02-04T01:59:01.219Z,64.65
2018-02-04T02:01:29.690Z,63.54
2018-02-04T02:03:58.333Z,63.54
2018-02-04T02:06:26.776Z,65.62
2018-02-04T02:08:55.399Z,64.28
2018-02-04T02:11:24.356Z,65.33
2018-02-04T02:13:53.774Z,65.66
2018-02-04T02:16:22.323Z,63.62
2018-02-04T02:18:50.740Z,65.25
2018-02-04T02:21:19.807Z,66.22
2018-02-04T02:23:48.807Z,64.65
2018-02-04T02:26:18.375Z,65.19
2018-02-04T02:28:49.015Z,64.80
2018-02-04T02:31:17.772Z,64.05
2018-02-04T02:33:46.320Z,63.05
2018-02-04T02:36:14.951Z,63.85
2018-02-04T02:38:43.592Z,66.04
2018-02-04T02:41:12.270Z,65.37
2018-02-04T02:43:40.724Z,63.88
2018-02-04T02:46:09.604Z,62.44
2018-02-04T02:48:38.052Z,65.67
2018-02-04T02:51:06.543Z,63.35
2018-02-04T02:53:35.093Z,62.22
2018-02-04T02:56:03.877Z,64.11
2018-02-04T02:58:32.939Z,63.70
2018-02-04T03:01:01.637Z,68.01
2018-02-04T03:03:30.101Z,65.73
2018-02-04T03:05:59.005Z,64.03
2018-02-04T03:08:27.895Z,66.18
2018-02-04T03:10:56.629Z,64.72
2018-02-04T03:13:25.304Z,65.55
2018-02-04T03:15:55.063Z,66.04
2018-02-04T03:18:23.533Z,66.85
2018-02-04T03:20:52.472Z,64.85
2018-02-04T03:23:20.851Z,64.39
2018-02-04T03:25:49.295Z,62.23
2018-02-04T03:28:18.001Z,62.99
2018-02-04T03:30:46.547Z,63.27
2018-02-04T03:33:15.319Z,65.19
2018-02-04T03:35:43.827Z,64.06
2018-02-04T03:38:12.248Z,65.09
2018-02-04T03:40:40.709Z,64.41
2018-02-04T03:43:09.343Z,64.60
2018-02-04T03:45:38.307Z,63.29
2018-02-04T03:48:06.864Z,66.15
2018-02-04T03:50:35.868Z,65.50
2018-02-04T03:53:04.541Z,62.96
2018-02-04T03:55:33.727Z,64.13
2018-02-04T03:58:02.573Z,63.61
2018-02-04T04:00:33.997Z,65.75
2018-02-04T04:03:02.463Z,63.69
2018-02-04T04:05:31.158Z,63.35
2018-02-04T04:07:59.663Z,62.61
2018-02-04T04:10:28.028Z,62.39
2018-02-04T04:12:56.536Z,63.21
2018-02-04T04:15:25.132Z,65.27
2018-02-04T04:17:54.063Z,62.49
2018-02-04T04:20:22.548Z,64.64
2018-02-04T04:22:50.923Z,65.58
2018-02-04T04:25:19.599Z,62.92
2018-02-04T04:27:48.142Z,64.14
2018-02-04T04:30:17.130Z,66.11
2018-02-04T04:32:45.803Z,68.84
2018-02-04T04:35:14.246Z,66.81
2018-02-04T04:37:42.761Z,66.70
2018-02-04T04:40:11.215Z,65.96
2018-02-04T04:42:39.915Z,65.65
2018-02-04T04:45:08.370Z,66.42
2018-02-04T04:47:36.886Z,64.45
2018-02-04T04:50:05.419Z,65.28
2018-02-04T04:52:33.950Z,65.41
2018-02-04T04:55:03.211Z,65.10
2018-02-04T04:57:32.007Z,63.83
2018-02-04T05:00:01.323Z,64.92
2018-02-04T05:02:30.209Z,63.67
2018-02-04T05:04:58.642Z,63.22
2018-02-04T05:07:27.167Z,62.57
2018-02-04T05:09:56.111Z,62.67
2018-02-04T05:12:25.113Z,62.68
2018-02-04T05:14:53.722Z,61.57
2018-02-04T05:17:22.556Z,63.05
2018-02-04T05:19:51.528Z,60.76
2018-02-04T05:22:20.824Z,59.60
2018-02-04T05:24:49.477Z,61.58
2018-02-04T05:27:18.056Z,59.31
2018-02-04T05:29:46.942Z,59.42
2018-02-04T05:32:16.226Z,60.79
2018-02-04T05:34:44.790Z,62.25
2018-02-04T05:37:13.295Z,62.68
2018-02-04T05:39:42.160Z,61.94
2018-02-04T05:42:11.025Z,61.92
2018-02-04T05:44:40.522Z,61.93
2018-02-04T05:47:09.890Z,60.75
2018-02-04T05:49:38.850Z,61.25
2018-02-04T05:52:07.407Z,62.43
2018-02-04T05:54:36.132Z,63.29
2018-02-04T05:57:04.888Z,63.09
2018-02-04T05:59:33.547Z,63.73
2018-02-04T06:02:02.376Z,65.20
2018-02-04T06:04:31.872Z,62.97
2018-02-04T06:07:00.703Z,62.32
2018-02-04T06:09:29.408Z,61.15
2018-02-04T06:11:57.761Z,66.09
2018-02-04T06:14:26.131Z,65.30
2018-02-04T06:16:54.790Z,63.56
2018-02-04T06:19:23.146Z,60.80
2018-02-04T06:21:51.528Z,63.45
2018-02-04T06:24:19.908Z,62.29
2018-02-04T06:26:48.266Z,60.66
2018-02-04T06:29:17.582Z,61.42
2018-02-04T06:31:45.946Z,59.90
2018-02-04T06:34:14.377Z,61.09
2018-02-04T06:36:42.766Z,61.31
2018-02-04T06:39:11.142Z,60.82
2018-02-04T06:41:39.498Z,60.87
2018-02-04T06:44:07.865Z,60.96
2018-02-04T06:46:36.519Z,62.40
2018-02-04T06:49:04.930Z,60.56
2018-02-04T06:51:33.288Z,60.99
2018-02-04T06:54:01.775Z,60.67
2018-02-04T06:56:30.134Z,59.92
2018-02-04T06:58:58.808Z,60.50
2018-02-04T07:01:27.187Z,59.97
2018-02-04T07:03:55.599Z,60.95
2018-02-04T07:06:23.981Z,60.24
2018-02-04T07:08:52.376Z,59.99
2018-02-04T07:11:21.062Z,59.86
2018-02-04T07:13:49.495Z,61.27
2018-02-04T07:16:17.908Z,59.53
2018-02-04T07:18:46.301Z,59.42
2018-02-04T07:21:14.700Z,59.28
2018-02-04T07:23:43.413Z,60.82
2018-02-04T07:26:11.835Z,60.54
2018-02-04T07:28:40.251Z,61.63
2018-02-04T07:31:08.610Z,60.15
2018-02-04T07:33:36.999Z,58.46
2018-02-04T07:36:05.788Z,60.97
2018-02-04T07:38:34.208Z,61.95
2018-02-04T07:41:02.591Z,60.72
2018-02-04T07:43:30.992Z,59.71
2018-02-04T07:45:59.403Z,60.99
2018-02-04T07:48:28.120Z,61.22
2018-02-04T07:50:56.539Z,60.39
2018-02-04T07:53:24.931Z,58.86
2018-02-04T07:55:53.329Z,58.32
2018-02-04T07:58:21.740Z,59.74
2018-02-04T08:00:50.291Z,58.86
2018-02-04T08:03:18.664Z,57.48
2018-02-04T08:05:47.041Z,56.78
2018-02-04T08:08:15.444Z,56.53
2018-02-04T08:10:43.860Z,57.86
2018-02-04T08:13:12.286Z,58.14
2018-02-04T08:15:40.769Z,59.51
2018-02-04T08:18:09.159Z,57.12
2018-02-04T08:20:37.661Z,58.65
2018-02-04T08:23:06.017Z,58.44
2018-02-04T08:25:34.487Z,59.89
2018-02-04T08:28:02.946Z,59.91
2018-02-04T08:30:31.422Z,58.78
2018-02-04T08:32:59.823Z,57.81
2018-02-04T08:35:28.225Z,54.92
2018-02-04T08:37:56.686Z,56.79
2018-02-04T08:40:25.165Z,59.69
2018-02-04T08:42:53.509Z,60.99
2018-02-04T08:45:21.927Z,60.02
2018-02-04T08:47:51.207Z,61.48
2018-02-04T08:50:19.660Z,59.58
2018-02-04T08:52:48.059Z,58.88
2018-02-04T08:55:16.469Z,58.32
2018-02-04T08:57:44.863Z,58.44
2018-02-04T09:00:13.241Z,58.46
2018-02-04T09:02:41.771Z,59.47
2018-02-04T09:05:10.173Z,56.82
2018-02-04T09:07:38.708Z,57.22
2018-02-04T09:10:07.133Z,55.72
2018-02-04T09:12:35.635Z,56.98
2018-02-04T09:15:04.651Z,57.82
2018-02-04T09:17:33.043Z,56.21
2018-02-04T09:20:01.448Z,55.37
2018-02-04T09:22:29.934Z,55.33
2018-02-04T09:24:58.334Z,53.16
2018-02-04T09:27:27.049Z,55.15
2018-02-04T09:29:55.599Z,54.31
2018-02-04T09:32:23.991Z,55.47
2018-02-04T09:34:52.468Z,55.45
2018-02-04T09:37:20.866Z,55.45
2018-02-04T09:39:50.433Z,54.19
2018-02-04T09:42:18.847Z,55.38
2018-02-04T09:44:47.237Z,55.38
2018-02-04T09:47:15.639Z,54.21
2018-02-04T09:49:44.002Z,52.66
2018-02-04T09:52:12.482Z,53.93
2018-02-04T09:54:40.885Z,56.43
2018-02-04T09:57:09.320Z,54.65
2018-02-04T09:59:37.696Z,55.28
2018-02-04T10:02:06.089Z,57.88
2018-02-04T10:04:34.573Z,61.13
2018-02-04T10:07:02.975Z,59.21
2018-02-04T10:09:31.380Z,58.79
2018-02-04T10:11:59.847Z,56.69
2018-02-04T10:14:28.247Z,55.37
2018-02-04T10:16:56.654Z,56.01
2018-02-04T10:19:25.045Z,57.41
2018-02-04T10:21:53.434Z,56.97
2018-02-04T10:24:21.847Z,57.12
2018-02-04T10:26:50.246Z,56.07
2018-02-04T10:29:18.962Z,55.79
2018-02-04T10:31:47.333Z,55.27
2018-02-04T10:34:15.692Z,54.97
2018-02-04T10:36:44.167Z,54.68
2018-02-04T10:39:12.545Z,56.09
2018-02-04T10:41:41.237Z,58.31
2018-02-04T10:44:09.647Z,56.44
2018-02-04T10:46:38.048Z,56.48
2018-02-04T10:49:06.446Z,56.71
2018-02-04T10:51:40.412Z,56.25
2018-02-04T10:54:08.772Z,56.37
2018-02-04T10:56:37.160Z,59.28
2018-02-04T10:59:05.625Z,60.17
2018-02-04T11:01:34.028Z,60.86
2018-02-04T11:04:03.397Z,59.40
2018-02-04T11:06:31.794Z,57.48
2018-02-04T11:09:00.268Z,57.07
2018-02-04T11:11:30.866Z,56.87
2018-02-04T11:13:59.323Z,59.59
2018-02-04T11:16:27.722Z,58.42
2018-02-04T11:18:56.133Z,58.13
2018-02-04T11:21:24.530Z,58.15
2018-02-04T11:23:53.203Z,58.08
2018-02-04T11:26:22.291Z,57.91
2018-02-04T11:28:51.045Z,57.38
2018-02-04T11:31:19.709Z,56.54
2018-02-04T11:33:48.617Z,57.23
2018-02-04T11:36:17.729Z,57.55
2018-02-04T11:38:46.197Z,56.51
2018-02-04T11:41:14.714Z,54.00
2018-02-04T11:43:43.484Z,56.32
2018-02-04T11:46:12.597Z,57.32
2018-02-04T11:48:41.400Z,57.35
2018-02-04T11:51:10.012Z,57.54
2018-02-04T11:53:38.484Z,56.72
2018-02-04T11:56:07.289Z,57.65
2018-02-04T11:58:35.845Z,57.56
2018-02-04T12:01:04.711Z,57.19
2018-02-04T12:03:33.461Z,56.12
2018-02-04T12:06:01.899Z,57.39
2018-02-04T12:08:30.651Z,59.28
2018-02-04T12:10:59.502Z,60.32
2018-02-04T12:13:28.617Z,62.45
2018-02-04T12:15:57.692Z,62.74
2018-02-04T12:18:26.459Z,61.91
2018-02-04T12:20:55.187Z,59.20
2018-02-04T12:23:23.991Z,58.65
2018-02-04T12:25:53.106Z,58.45
2018-02-04T12:28:21.866Z,58.63
2018-02-04T12:30:50.448Z,58.12
2018-02-04T12:33:18.937Z,59.40
2018-02-04T12:35:47.379Z,56.99
2018-02-04T12:38:15.991Z,58.13
2018-02-04T12:40:44.476Z,58.89
2018-02-04T12:43:12.895Z,57.85
2018-02-04T12:45:41.303Z,59.15
2018-02-04T12:48:09.774Z,58.51
2018-02-04T12:50:38.492Z,55.52
2018-02-04T12:53:06.892Z,54.79
2018-02-04T12:55:35.260Z,55.99
2018-02-04T12:58:03.999Z,54.56
2018-02-04T13:00:32.405Z,58.09
2018-02-04T13:03:00.868Z,57.11
2018-02-04T13:05:29.978Z,57.89
2018-02-04T13:07:58.467Z,58.68
2018-02-04T13:10:26.889Z,59.25
2018-02-04T13:12:55.278Z,57.53
2018-02-04T13:15:24.059Z,57.72
2018-02-04T13:17:52.456Z,58.14
2018-02-04T13:20:20.855Z,57.81
2018-02-04T13:22:49.234Z,57.99
2018-02-04T13:25:17.641Z,59.56
2018-02-04T13:27:46.268Z,59.53
2018-02-04T13:30:14.695Z,60.02
2018-02-04T13:32:43.371Z,59.86
2018-02-04T13:35:11.853Z,59.31
2018-02-04T13:37:40.305Z,61.07
2018-02-04T13:40:08.772Z,62.51
2018-02-04T13:42:37.164Z,59.87
2018-02-04T13:45:05.534Z,58.15
2018-02-04T13:47:33.920Z,59.74
2018-02-04T13:50:02.330Z,60.57
2018-02-04T13:52:30.877Z,59.92
2018-02-04T13:54:59.259Z,62.28
2018-02-04T13:57:27.834Z,60.92
2018-02-04T13:59:56.189Z,62.82
2018-02-04T14:02:24.581Z,65.11
2018-02-04T14:04:53.259Z,63.10
2018-02-04T14:07:21.646Z,62.47
2018-02-04T14:09:50.057Z,63.31
2018-02-04T14:12:18.451Z,63.75
2018-02-04T14:14:46.831Z,60.48
2018-02-04T14:17:15.359Z,61.64
2018-02-04T14:19:43.725Z,60.23
2018-02-04T14:22:12.192Z,58.76
2018-02-04T14:24:40.586Z,60.14
2018-02-04T14:27:09.206Z,62.20
2018-02-04T14:29:39.568Z,61.00
2018-02-04T14:32:08.070Z,59.78
2018-02-04T14:34:36.471Z,61.39
2018-02-04T14:37:04.859Z,58.03
2018-02-04T14:39:33.223Z,59.29
2018-02-04T14:42:01.979Z,60.35
2018-02-04T14:44:30.455Z,59.74
2018-02-04T14:46:58.849Z,59.03
2018-02-04T14:49:27.214Z,58.63
2018-02-04T14:51:55.588Z,58.27
2018-02-04T14:54:24.302Z,56.98
2018-02-04T14:56:52.718Z,54.84
2018-02-04T14:59:21.104Z,55.55
2018-02-04T15:01:49.466Z,59.12
2018-02-04T15:04:17.832Z,57.77
2018-02-04T15:06:46.275Z,56.40
2018-02-04T15:09:14.628Z,55.48
2018-02-04T15:11:43.005Z,57.81
2018-02-04T15:14:11.401Z,58.82
2018-02-04T15:16:39.819Z,57.02
2018-02-04T15:19:08.245Z,56.54
2018-02-04T15:21:36.671Z,56.83
2018-02-04T15:24:05.073Z,56.44
2018-02-04T15:26:33.487Z,58.78
2018-02-04T15:29:01.874Z,60.08
2018-02-04T15:31:30.578Z,56.14
2018-02-04T15:33:58.965Z,55.64
2018-02-04T15:36:27.440Z,56.06
2018-02-04T15:38:55.792Z,57.00
2018-02-04T15:41:24.270Z,56.43
2018-02-04T15:43:52.979Z,56.12
2018-02-04T15:46:21.395Z,53.41
2018-02-04T15:48:49.938Z,56.58
2018-02-04T15:51:18.317Z,56.09
2018-02-04T15:53:47.452Z,54.95
2018-02-04T15:56:16.240Z,54.60
2018-02-04T15:58:44.593Z,55.29
2018-02-04T16:01:12.939Z,53.38
2018-02-04T16:03:41.300Z,56.19
2018-02-04T16:06:09.675Z,54.71
2018-02-04T16:08:38.476Z,55.44
2018-02-04T16:11:06.947Z,55.51
2018-02-04T16:13:35.313Z,57.95
2018-02-04T16:16:03.788Z,56.92
2018-02-04T16:18:32.171Z,57.70
2018-02-04T16:21:00.635Z,58.08
2018-02-04T16:23:29.056Z,57.42
2018-02-04T16:25:57.579Z,58.80
2018-02-04T16:28:25.989Z,59.52
2018-02-04T16:30:54.367Z,59.48
2018-02-04T16:33:22.845Z,58.37
2018-02-04T16:35:51.214Z,57.46
2018-02-04T16:38:19.618Z,59.74
2018-02-04T16:40:48.019Z,60.55
2018-02-04T16:43:16.394Z,60.20
2018-02-04T16:45:45.112Z,62.05
2018-02-04T16:48:13.469Z,60.95
2018-02-04T16:50:41.863Z,61.14
2018-02-04T16:53:10.255Z,59.45
2018-02-04T16:55:38.615Z,58.61
2018-02-04T16:58:07.286Z,58.60
2018-02-04T17:00:35.678Z,59.69
2018-02-04T17:03:04.063Z,61.73
2018-02-04T17:05:32.482Z,59.94
2018-02-04T17:08:00.852Z,61.12
2018-02-04T17:10:29.567Z,61.14
2018-02-04T17:12:58.027Z,59.66
2018-02-04T17:15:26.431Z,59.90
2018-02-04T17:17:54.833Z,59.64
2018-02-04T17:20:23.217Z,59.94
2018-02-04T17:22:51.973Z,61.08
2018-02-04T17:25:20.357Z,63.50
2018-02-04T17:27:48.728Z,61.51
2018-02-04T17:30:17.103Z,59.95
2018-02-04T17:32:45.494Z,61.41
2018-02-04T17:35:14.270Z,58.83
2018-02-04T17:37:42.688Z,59.62
2018-02-04T17:40:11.010Z,61.05
2018-02-04T17:42:39.366Z,61.04
2018-02-04T17:45:07.726Z,61.23
2018-02-04T17:47:36.158Z,60.66
2018-02-04T17:50:05.475Z,60.68
2018-02-04T17:52:33.861Z,61.48
2018-02-04T17:55:02.289Z,61.61
2018-02-04T17:57:31.597Z,63.24
2018-02-04T18:00:00.266Z,63.29
2018-02-04T18:02:28.729Z,62.89
2018-02-04T18:04:57.123Z,62.57
2018-02-04T18:07:25.512Z,61.76
2018-02-04T18:09:53.866Z,61.52
2018-02-04T18:12:22.583Z,61.11
2018-02-04T18:14:50.943Z,60.70
2018-02-04T18:17:19.345Z,59.82
2018-02-04T18:19:47.754Z,60.90
2018-02-04T18:22:16.155Z,61.72
2018-02-04T18:24:44.787Z,62.74
2018-02-04T18:27:13.174Z,61.08
2018-02-04T18:29:41.535Z,62.38
2018-02-04T18:32:09.960Z,60.43
2018-02-04T18:34:38.329Z,62.56
2018-02-04T18:37:07.327Z,60.64
2018-02-04T18:39:35.712Z,65.09
2018-02-04T18:42:04.073Z,62.52
2018-02-04T18:44:32.436Z,61.96
2018-02-04T18:47:00.792Z,63.12
2018-02-04T18:49:29.229Z,63.08
2018-02-04T18:51:57.723Z,62.91
2018-02-04T18:54:26.077Z,64.77
2018-02-04T18:56:54.431Z,61.27
2018-02-04T18:59:22.793Z,61.30
2018-02-04T19:01:51.537Z,61.02
2018-02-04T19:04:19.904Z,60.55
2018-02-04T19:06:48.387Z,62.32
2018-02-04T19:09:16.738Z,61.47
2018-02-04T19:11:45.143Z,61.92
2018-02-04T19:14:13.922Z,61.77
2018-02-04T19:16:42.516Z,63.23
2018-02-04T19:19:10.991Z,60.34
2018-02-04T19:21:39.370Z,59.34
2018-02-04T19:24:07.758Z,58.48
2018-02-04T19:26:36.197Z,61.34
2018-02-04T19:29:04.568Z,62.47
2018-02-04T19:31:32.931Z,62.91
2018-02-04T19:34:01.327Z,62.68
2018-02-04T19:36:29.702Z,61.91
2018-02-04T19:38:58.147Z,60.51
2018-02-04T19:41:26.597Z,62.28
2018-02-04T19:43:55.009Z,59.71
2018-02-04T19:46:23.430Z,62.41
2018-02-04T19:48:51.775Z,61.49
2018-02-04T19:51:20.225Z,61.07
2018-02-04T19:53:48.582Z,62.45
2018-02-04T19:56:16.951Z,63.12
2018-02-04T19:58:45.424Z,61.03
2018-02-04T20:01:13.788Z,62.05
2018-02-04T20:03:42.472Z,65.36
2018-02-04T20:06:10.905Z,63.68
2018-02-04T20:08:39.279Z,63.54
2018-02-04T20:11:07.706Z,63.13
2018-02-04T20:13:36.096Z,63.67
2018-02-04T20:16:04.515Z,61.96
2018-02-04T20:18:32.870Z,63.65
2018-02-04T20:21:01.320Z,63.45
2018-02-04T20:23:29.666Z,61.17
2018-02-04T20:25:58.151Z,62.85
2018-02-04T20:28:26.553Z,61.02
2018-02-04T20:30:54.951Z,59.89
2018-02-04T20:33:23.318Z,60.11
2018-02-04T20:35:51.684Z,61.33
2018-02-04T20:38:20.056Z,61.05
2018-02-04T20:40:48.720Z,61.30
2018-02-04T20:43:17.086Z,60.19
2018-02-04T20:45:45.434Z,60.00
2018-02-04T20:48:13.817Z,62.08
2018-02-04T20:50:42.190Z,59.78
2018-02-04T20:53:10.878Z,62.28
2018-02-04T20:55:39.250Z,64.07
2018-02-04T20:58:07.610Z,61.96
2018-02-04T21:00:35.958Z,60.86
2018-02-04T21:03:04.329Z,62.99
2018-02-04T21:05:33.011Z,62.26
2018-02-04T21:08:01.371Z,61.35
2018-02-04T21:10:29.727Z,61.42
2018-02-04T21:12:58.072Z,60.12
2018-02-04T21:15:26.436Z,64.12
2018-02-04T21:17:55.133Z,65.51
2018-02-04T21:20:23.500Z,68.69
2018-02-04T21:22:51.845Z,70.71
2018-02-04T21:25:20.201Z,66.95
2018-02-04T21:27:48.571Z,68.05
2018-02-04T21:30:17.217Z,69.04
2018-02-04T21:32:45.577Z,65.06
2018-02-04T21:35:14.054Z,62.81
2018-02-04T21:37:42.530Z,61.78
2018-02-04T21:40:10.899Z,61.71
2018-02-04T21:42:39.248Z,63.67
2018-02-04T21:45:07.594Z,65.16
2018-02-04T21:47:36.293Z,65.51
2018-02-04T21:50:04.716Z,67.13
2018-02-04T21:52:33.165Z,66.45
2018-02-04T21:55:01.544Z,66.36
2018-02-04T21:57:29.891Z,64.04
2018-02-04T21:59:58.599Z,63.23
2018-02-04T22:02:26.972Z,62.08
2018-02-04T22:04:55.402Z,62.85
2018-02-04T22:07:23.757Z,63.35
2018-02-04T22:09:52.326Z,63.01
2018-02-04T22:12:20.753Z,64.11
2018-02-04T22:14:49.107Z,64.64
2018-02-04T22:17:17.467Z,62.99
2018-02-04T22:19:45.830Z,61.64
2018-02-04T22:22:14.206Z,62.67
2018-02-04T22:24:42.899Z,62.65
2018-02-04T22:27:11.237Z,62.78
2018-02-04T22:29:39.589Z,64.54
2018-02-04T22:32:07.993Z,64.74
2018-02-04T22:34:36.348Z,63.71
2018-02-04T22:37:04.917Z,65.28
2018-02-04T22:39:33.274Z,65.27
2018-02-04T22:42:01.627Z,64.04
2018-02-04T22:44:29.979Z,65.90
2018-02-04T22:46:58.342Z,66.65
2018-02-04T22:49:26.719Z,64.16
2018-02-04T22:51:55.103Z,63.20
2018-02-04T22:54:23.580Z,63.18
2018-02-04T22:56:51.947Z,62.85
2018-02-04T22:59:20.311Z,63.01
2018-02-04T23:01:48.661Z,61.38
2018-02-04T23:04:17.013Z,61.67
2018-02-04T23:06:45.448Z,64.49
2018-02-04T23:09:13.798Z,66.09
2018-02-04T23:11:42.173Z,63.75
2018-02-04T23:14:10.547Z,60.62
2018-02-04T23:16:38.916Z,60.80
2018-02-04T23:19:07.268Z,64.94
2018-02-04T23:21:35.614Z,62.58
2018-02-04T23:24:03.964Z,65.95
2018-02-04T23:26:32.326Z,64.64
2018-02-04T23:29:00.684Z,63.88
2018-02-04T23:31:29.051Z,62.27
2018-02-04T23:33:57.408Z,62.37
2018-02-04T23:36:25.753Z,62.71
2018-02-04T23:38:54.128Z,63.51
2018-02-04T23:41:22.493Z,62.99
2018-02-04T23:43:50.882Z,61.69
2018-02-04T23:46:19.226Z,61.62
2018-02-04T23:48:47.567Z,64.46
2018-02-04T23:51:16.281Z,65.15
2018-02-04T23:53:44.704Z,62.85
2018-02-04T23:56:13.066Z,62.40
2018-02-04T23:58:41.560Z,62.01
